createdAt,value
2019-05-03T00:01:43.848Z,6.83
2019-05-03T00:04:12.300Z,15.73
2019-05-03T00:06:38.866Z,4.73
2019-05-03T00:09:08.216Z,9.97
2019-05-03T00:11:34.669Z,8.97
2019-05-03T00:14:01.685Z,12.47
2019-05-03T00:16:35.363Z,7.63
2019-05-03T00:19:03.361Z,17.85
2019-05-03T00:21:29.696Z,3.17
2019-05-03T00:23:55.784Z,14.03
2019-05-03T00:26:22.636Z,5.53
2019-05-03T00:28:48.937Z,6.13
2019-05-03T00:31:15.464Z,7.53
2019-05-03T00:33:43.799Z,23.10
2019-05-03T00:36:12.175Z,8.50
2019-05-03T00:38:38.686Z,10.53
2019-05-03T00:41:05.223Z,11.30
2019-05-03T00:43:31.845Z,15.33
2019-05-03T00:45:58.409Z,6.03
2019-05-03T00:48:24.943Z,11.60
2019-05-03T00:50:51.779Z,2.00
2019-05-03T00:53:18.119Z,3.10
2019-05-03T00:55:44.775Z,1.27
2019-05-03T00:58:11.792Z,10.23
2019-05-03T01:00:38.179Z,4.60
2019-05-03T01:03:04.610Z,2.10
2019-05-03T01:05:32.979Z,15.60
2019-05-03T01:07:59.371Z,16.03
2019-05-03T01:10:25.844Z,3.40
2019-05-03T01:12:52.484Z,9.27
2019-05-03T01:15:23.952Z,10.77
2019-05-03T01:17:52.443Z,10.07
2019-05-03T01:20:18.478Z,7.17
2019-05-03T01:22:45.011Z,4.55
2019-05-03T01:25:12.031Z,5.57
2019-05-03T01:27:38.352Z,6.87
2019-05-03T01:30:06.456Z,2.30
2019-05-03T01:32:33.024Z,3.70
2019-05-03T01:34:59.627Z,7.37
2019-05-03T01:37:25.711Z,9.45
2019-05-03T01:39:52.570Z,14.80
2019-05-03T01:42:19.329Z,8.97
2019-05-03T01:44:45.801Z,6.83
2019-05-03T01:47:14.234Z,13.37
2019-05-03T01:49:44.995Z,4.47
2019-05-03T01:52:13.343Z,3.27
2019-05-03T01:54:39.415Z,1.80
2019-05-03T01:57:05.845Z,12.57
2019-05-03T01:59:32.304Z,6.23
2019-05-03T02:02:09.123Z,3.77
2019-05-03T02:04:45.960Z,3.03
2019-05-03T02:07:12.045Z,9.23
2019-05-03T02:09:38.496Z,7.73
2019-05-03T02:12:05.035Z,8.68
2019-05-03T02:14:31.809Z,12.77
2019-05-03T02:16:57.948Z,11.57
2019-05-03T02:19:24.421Z,5.77
2019-05-03T02:21:52.399Z,5.27
2019-05-03T02:24:19.055Z,5.53
2019-05-03T02:26:45.496Z,4.37
2019-05-03T02:29:12.587Z,9.50
2019-05-03T02:31:39.209Z,6.23
2019-05-03T02:34:05.997Z,9.67
2019-05-03T02:36:33.691Z,8.47
2019-05-03T02:39:02.673Z,18.67
2019-05-03T02:41:28.038Z,11.23
2019-05-03T02:43:58.061Z,15.47
2019-05-03T02:46:26.065Z,12.73
2019-05-03T02:48:57.181Z,11.30
2019-05-03T02:51:26.094Z,12.27
2019-05-03T02:53:51.699Z,9.50
2019-05-03T02:56:22.133Z,5.60
2019-05-03T02:58:46.120Z,6.57
2019-05-03T03:01:15.676Z,3.73
2019-05-03T03:03:41.176Z,18.73
2019-05-03T03:06:07.701Z,5.13
2019-05-03T03:08:37.012Z,9.73
2019-05-03T03:11:06.295Z,15.03
2019-05-03T03:13:36.812Z,56.80
2019-05-03T03:16:06.909Z,52.53
2019-05-03T03:18:36.622Z,34.47
2019-05-03T03:21:05.685Z,32.73
2019-05-03T03:23:35.674Z,46.40
2019-05-03T03:26:02.997Z,36.33
2019-05-03T03:28:32.162Z,41.53
2019-05-03T03:31:23.040Z,41.67
2019-05-03T03:33:49.605Z,50.33
2019-05-03T03:36:37.579Z,44.47
2019-05-03T03:38:45.889Z,42.73
2019-05-03T03:41:16.176Z,45.73
2019-05-03T03:43:42.329Z,59.27
2019-05-03T03:46:09.145Z,43.40
2019-05-03T03:48:39.084Z,42.60
2019-05-03T03:51:08.173Z,38.87
2019-05-03T03:53:36.002Z,45.37
2019-05-03T03:56:02.381Z,34.50
2019-05-03T03:58:28.552Z,44.23
2019-05-03T04:00:55.446Z,34.80
2019-05-03T04:03:21.886Z,39.07
2019-05-03T04:05:47.985Z,42.77
2019-05-03T04:08:16.255Z,49.67
2019-05-03T04:10:42.111Z,43.90
2019-05-03T04:13:10.308Z,46.27
2019-05-03T04:15:56.121Z,45.20
2019-05-03T04:18:27.205Z,49.20
2019-05-03T04:20:55.981Z,40.83
2019-05-03T04:23:21.951Z,41.63
2019-05-03T04:25:48.509Z,40.07
2019-05-03T04:28:16.326Z,38.23
2019-05-03T04:30:42.662Z,41.27
2019-05-03T04:33:08.816Z,42.37
2019-05-03T04:35:36.401Z,39.27
2019-05-03T04:38:05.534Z,51.47
2019-05-03T04:40:31.081Z,38.40
2019-05-03T04:42:57.155Z,48.03
2019-05-03T04:45:25.493Z,47.77
2019-05-03T04:47:51.391Z,42.10
2019-05-03T04:50:17.493Z,40.30
2019-05-03T04:52:46.312Z,37.07
2019-05-03T04:55:11.741Z,37.80
2019-05-03T04:57:45.071Z,35.73
2019-05-03T05:00:11.180Z,36.93
2019-05-03T05:02:35.841Z,39.00
2019-05-03T05:05:05.836Z,45.10
2019-05-03T05:07:31.068Z,43.37
2019-05-03T05:09:57.122Z,43.77
2019-05-03T05:12:25.242Z,45.27
2019-05-03T05:14:51.275Z,56.90
2019-05-03T05:17:19.225Z,45.30
2019-05-03T05:19:54.807Z,40.07
2019-05-03T05:22:31.599Z,48.20
2019-05-03T05:24:58.895Z,41.30
2019-05-03T05:27:48.334Z,39.23
2019-05-03T05:30:06.142Z,42.37
2019-05-03T05:32:32.408Z,40.80
2019-05-03T05:34:58.567Z,44.23
2019-05-03T05:37:25.078Z,46.97
2019-05-03T05:39:51.279Z,48.63
2019-05-03T05:42:17.341Z,51.07
2019-05-03T05:44:45.256Z,53.87
2019-05-03T05:47:29.748Z,52.90
2019-05-03T05:49:57.711Z,43.27
2019-05-03T05:52:24.554Z,35.57
2019-05-03T05:55:08.134Z,40.23
2019-05-03T05:57:36.095Z,35.20
2019-05-03T06:00:10.275Z,32.97
2019-05-03T06:02:36.380Z,31.10
2019-05-03T06:05:04.844Z,42.90
2019-05-03T06:07:35.559Z,39.70
2019-05-03T06:10:06.967Z,40.93
2019-05-03T06:12:37.720Z,35.73
2019-05-03T06:15:09.280Z,39.10
2019-05-03T06:17:37.240Z,49.53
2019-05-03T06:20:25.529Z,46.17
2019-05-03T06:22:54.933Z,36.60
2019-05-03T06:25:26.203Z,36.63
2019-05-03T06:27:51.071Z,36.57
2019-05-03T06:30:22.004Z,37.70
2019-05-03T06:32:48.055Z,35.30
2019-05-03T06:35:15.216Z,46.27
2019-05-03T06:37:45.908Z,37.93
2019-05-03T06:40:14.788Z,44.23
2019-05-03T06:42:51.528Z,42.13
2019-05-03T06:45:11.725Z,53.90
2019-05-03T06:47:40.220Z,39.80
2019-05-03T06:50:05.515Z,40.33
2019-05-03T06:52:31.623Z,33.93
2019-05-03T06:55:00.418Z,33.63
2019-05-03T06:57:25.764Z,34.10
2019-05-03T06:59:56.577Z,33.83
2019-05-03T07:02:28.551Z,36.77
2019-05-03T07:05:04.959Z,39.20
2019-05-03T07:07:35.470Z,50.30
2019-05-03T07:10:10.929Z,41.47
2019-05-03T07:12:55.312Z,36.73
2019-05-03T07:15:21.385Z,37.73
2019-05-03T07:17:47.428Z,42.47
2019-05-03T07:20:14.825Z,35.20
2019-05-03T07:22:41.037Z,35.73
2019-05-03T07:25:07.095Z,34.90
2019-05-03T07:27:34.877Z,46.97
2019-05-03T07:30:01.373Z,45.80
2019-05-03T07:32:27.527Z,40.27
2019-05-03T07:34:55.488Z,38.30
2019-05-03T07:37:21.538Z,39.50
2019-05-03T07:39:47.596Z,40.00
2019-05-03T07:42:15.529Z,37.30
2019-05-03T07:44:41.623Z,47.73
2019-05-03T07:47:07.679Z,39.27
2019-05-03T07:49:35.740Z,39.37
2019-05-03T07:52:01.708Z,42.63
2019-05-03T07:54:27.763Z,34.87
2019-05-03T07:56:58.236Z,34.33
2019-05-03T07:59:25.121Z,34.67
2019-05-03T08:01:54.631Z,35.17
2019-05-03T08:04:20.807Z,42.63
2019-05-03T08:06:46.860Z,37.03
2019-05-03T08:09:12.919Z,36.93
2019-05-03T08:11:38.971Z,39.07
2019-05-03T08:14:05.331Z,40.80
2019-05-03T08:16:31.421Z,38.90
2019-05-03T08:18:57.485Z,34.97
2019-05-03T08:21:25.275Z,35.10
2019-05-03T08:23:51.633Z,39.83
2019-05-03T08:26:17.691Z,35.97
2019-05-03T08:28:44.464Z,34.60
2019-05-03T08:31:27.977Z,34.30
2019-05-03T08:34:05.023Z,47.90
2019-05-03T08:36:35.591Z,37.83
2019-05-03T08:39:01.639Z,37.57
2019-05-03T08:41:29.595Z,50.43
2019-05-03T08:43:55.650Z,39.77
2019-05-03T08:46:21.707Z,36.13
2019-05-03T08:48:47.755Z,31.63
2019-05-03T08:51:14.846Z,38.50
2019-05-03T08:53:41.085Z,52.13
2019-05-03T08:56:07.185Z,39.63
2019-05-03T08:58:34.775Z,37.37
2019-05-03T09:01:01.171Z,33.90
2019-05-03T09:03:27.245Z,35.77
2019-05-03T09:05:56.239Z,36.90
2019-05-03T09:08:21.287Z,45.80
2019-05-03T09:10:52.033Z,40.73
2019-05-03T09:13:21.917Z,43.07
2019-05-03T09:15:49.868Z,40.80
2019-05-03T09:18:17.463Z,40.43
2019-05-03T09:20:44.823Z,35.27
2019-05-03T09:23:11.157Z,43.80
2019-05-03T09:25:37.353Z,38.77
2019-05-03T09:28:04.704Z,42.43
2019-05-03T09:30:30.992Z,34.50
2019-05-03T09:32:57.044Z,35.37
2019-05-03T09:35:30.587Z,45.33
2019-05-03T09:37:51.068Z,43.43
2019-05-03T09:40:17.127Z,45.77
2019-05-03T09:42:44.486Z,36.63
2019-05-03T09:45:11.388Z,39.87
2019-05-03T09:47:37.488Z,38.33
2019-05-03T09:50:05.137Z,42.53
2019-05-03T09:52:31.199Z,43.73
2019-05-03T09:54:59.248Z,39.67
2019-05-03T09:57:25.324Z,41.23
2019-05-03T09:59:58.959Z,32.13
2019-05-03T10:02:19.332Z,38.60
2019-05-03T10:04:45.393Z,42.27
2019-05-03T10:07:11.553Z,40.83
2019-05-03T10:09:37.635Z,37.47
2019-05-03T10:12:05.695Z,41.33
2019-05-03T10:14:31.824Z,30.60
2019-05-03T10:17:17.799Z,40.23
2019-05-03T10:19:45.214Z,32.43
2019-05-03T10:22:12.752Z,32.23
2019-05-03T10:24:38.806Z,31.60
2019-05-03T10:27:05.571Z,37.97
2019-05-03T10:29:31.912Z,36.47
2019-05-03T10:31:59.887Z,35.60
2019-05-03T10:34:25.943Z,39.40
2019-05-03T10:36:52.004Z,34.73
2019-05-03T10:39:18.056Z,43.17
2019-05-03T10:41:45.372Z,34.23
2019-05-03T10:44:11.564Z,40.63
2019-05-03T10:46:37.619Z,37.70
2019-05-03T10:49:05.615Z,39.10
2019-05-03T10:51:35.795Z,35.73
2019-05-03T10:54:01.616Z,35.17
2019-05-03T10:56:35.888Z,42.53
2019-05-03T10:59:06.007Z,32.13
2019-05-03T11:01:45.642Z,34.53
2019-05-03T11:04:11.700Z,38.37
2019-05-03T11:06:37.752Z,36.80
2019-05-03T11:09:05.669Z,38.20
2019-05-03T11:11:32.071Z,36.57
2019-05-03T11:13:58.359Z,61.50
2019-05-03T11:16:25.517Z,37.23
2019-05-03T11:18:51.676Z,36.33
2019-05-03T11:21:27.859Z,32.47
2019-05-03T11:23:45.752Z,39.47
2019-05-03T11:26:11.795Z,39.07
2019-05-03T11:28:37.868Z,34.30
2019-05-03T11:31:24.741Z,29.93
2019-05-03T11:33:51.342Z,44.30
2019-05-03T11:36:19.307Z,36.87
2019-05-03T11:38:45.780Z,38.57
2019-05-03T11:41:11.975Z,35.33
2019-05-03T11:43:38.048Z,51.70
2019-05-03T11:46:04.100Z,36.07
2019-05-03T11:48:30.155Z,37.90
2019-05-03T11:50:56.218Z,33.27
2019-05-03T11:53:22.263Z,34.20
2019-05-03T11:55:48.449Z,33.50
2019-05-03T11:58:18.371Z,33.23
2019-05-03T12:00:45.127Z,36.90
2019-05-03T12:03:15.233Z,33.47
2019-05-03T12:05:43.192Z,38.33
2019-05-03T12:08:09.261Z,42.50
2019-05-03T12:10:50.821Z,40.93
2019-05-03T12:13:05.271Z,41.20
2019-05-03T12:15:31.618Z,43.17
2019-05-03T12:17:59.994Z,47.73
2019-05-03T12:20:28.737Z,35.67
2019-05-03T12:22:54.867Z,34.30
2019-05-03T12:25:22.045Z,35.10
2019-05-03T12:27:48.436Z,41.90
2019-05-03T12:30:15.716Z,34.43
2019-05-03T12:32:41.772Z,36.23
2019-05-03T12:35:07.962Z,40.00
2019-05-03T12:37:35.372Z,42.20
2019-05-03T12:40:05.406Z,35.73
2019-05-03T12:42:31.544Z,38.60
2019-05-03T12:44:57.616Z,34.13
2019-05-03T12:47:25.136Z,37.07
2019-05-03T12:49:51.524Z,37.17
2019-05-03T12:52:18.021Z,34.50
2019-05-03T12:54:44.627Z,32.00
2019-05-03T12:57:10.815Z,33.00
2019-05-03T12:59:38.771Z,32.10
2019-05-03T13:02:15.666Z,33.27
2019-05-03T13:04:44.682Z,37.77
2019-05-03T13:07:15.751Z,37.90
2019-05-03T13:09:54.832Z,37.07
2019-05-03T13:12:22.788Z,39.73
2019-05-03T13:14:48.845Z,34.93
2019-05-03T13:17:16.824Z,37.73
2019-05-03T13:19:45.039Z,35.50
2019-05-03T13:22:10.835Z,37.47
2019-05-03T13:24:36.918Z,35.13
2019-05-03T13:27:02.984Z,33.07
2019-05-03T13:29:29.062Z,33.47
2019-05-03T13:32:01.684Z,34.70
2019-05-03T13:34:24.792Z,35.83
2019-05-03T13:36:51.059Z,35.47
2019-05-03T13:39:17.393Z,36.63
2019-05-03T13:41:45.362Z,37.00
2019-05-03T13:44:11.400Z,35.10
2019-05-03T13:46:37.459Z,39.17
2019-05-03T13:49:05.399Z,36.77
2019-05-03T13:51:31.900Z,33.43
2019-05-03T13:53:57.965Z,34.87
2019-05-03T13:56:24.701Z,32.50
2019-05-03T13:58:50.887Z,34.03
2019-05-03T14:01:17.007Z,39.43
2019-05-03T14:03:45.092Z,55.83
2019-05-03T14:06:11.115Z,67.83
2019-05-03T14:08:37.171Z,36.70
2019-05-03T14:11:04.974Z,37.87
2019-05-03T14:13:31.324Z,54.57
2019-05-03T14:15:59.374Z,36.47
2019-05-03T14:18:25.655Z,41.43
2019-05-03T14:21:05.599Z,34.23
2019-05-03T14:23:34.711Z,40.50
2019-05-03T14:26:00.931Z,32.03
2019-05-03T14:28:27.017Z,34.83
2019-05-03T14:30:54.767Z,35.73
2019-05-03T14:33:21.018Z,34.47
2019-05-03T14:35:47.162Z,40.17
2019-05-03T14:38:15.095Z,38.60
2019-05-03T14:40:41.176Z,37.30
2019-05-03T14:43:10.712Z,36.90
2019-05-03T14:45:36.802Z,42.40
2019-05-03T14:48:05.948Z,45.33
2019-05-03T14:50:31.748Z,35.10
2019-05-03T14:52:57.899Z,34.63
2019-05-03T14:55:35.200Z,35.73
2019-05-03T14:58:03.204Z,50.73
2019-05-03T15:00:48.043Z,43.93
2019-05-03T15:03:15.999Z,33.60
2019-05-03T15:05:42.071Z,37.10
2019-05-03T15:08:08.116Z,44.20
2019-05-03T15:10:35.053Z,38.50
2019-05-03T15:13:01.345Z,44.77
2019-05-03T15:15:28.903Z,41.00
2019-05-03T15:17:55.188Z,44.30
2019-05-03T15:20:21.355Z,30.03
2019-05-03T15:22:47.421Z,30.20
2019-05-03T15:25:13.472Z,33.20
2019-05-03T15:27:39.539Z,30.40
2019-05-03T15:30:06.111Z,32.43
2019-05-03T15:32:32.175Z,32.20
2019-05-03T15:34:58.255Z,43.87
2019-05-03T15:37:25.475Z,43.67
2019-05-03T15:39:51.983Z,44.57
2019-05-03T15:42:19.364Z,40.93
2019-05-03T15:44:56.224Z,43.93
2019-05-03T15:47:29.768Z,39.33
2019-05-03T15:49:55.817Z,32.43
2019-05-03T15:52:21.899Z,44.77
2019-05-03T15:54:47.971Z,34.17
2019-05-03T15:57:14.445Z,36.10
2019-05-03T15:59:40.683Z,35.73
2019-05-03T16:02:06.752Z,34.70
2019-05-03T16:04:32.819Z,51.13
2019-05-03T16:06:58.899Z,38.03
2019-05-03T16:09:24.951Z,44.17
2019-05-03T16:11:50.995Z,41.13
2019-05-03T16:14:17.060Z,38.40
2019-05-03T16:16:45.073Z,39.60
2019-05-03T16:19:11.256Z,35.70
2019-05-03T16:21:41.755Z,46.63
2019-05-03T16:24:08.065Z,40.07
2019-05-03T16:26:36.083Z,41.20
2019-05-03T16:29:04.689Z,39.23
2019-05-03T16:31:31.026Z,40.30
2019-05-03T16:33:57.124Z,40.23
2019-05-03T16:36:23.226Z,50.00
2019-05-03T16:38:49.361Z,34.73
2019-05-03T16:41:22.339Z,39.97
2019-05-03T16:43:48.944Z,52.73
2019-05-03T16:46:21.778Z,38.47
2019-05-03T16:48:47.895Z,34.93
2019-05-03T16:51:15.173Z,36.70
2019-05-03T16:53:41.951Z,54.73
2019-05-03T16:56:08.005Z,39.00
2019-05-03T16:58:35.414Z,44.20
2019-05-03T17:01:01.640Z,37.00
2019-05-03T17:03:38.612Z,37.30
2019-05-03T17:05:59.471Z,42.23
2019-05-03T17:08:37.992Z,40.50
2019-05-03T17:11:14.880Z,41.50
2019-05-03T17:13:40.954Z,64.43
2019-05-03T17:16:07.115Z,38.77
2019-05-03T17:18:35.115Z,36.33
2019-05-03T17:21:01.144Z,42.67
2019-05-03T17:23:27.219Z,37.13
2019-05-03T17:25:53.299Z,38.30
2019-05-03T17:28:19.439Z,42.73
2019-05-03T17:30:45.604Z,46.33
2019-05-03T17:33:11.672Z,40.60
2019-05-03T17:35:37.755Z,47.73
2019-05-03T17:38:05.278Z,51.37
2019-05-03T17:40:45.319Z,41.13
2019-05-03T17:43:16.490Z,46.47
2019-05-03T17:45:45.448Z,50.67
2019-05-03T17:48:11.744Z,51.07
2019-05-03T17:50:37.795Z,39.70
2019-05-03T17:53:14.817Z,45.03
2019-05-03T17:55:44.484Z,41.70
2019-05-03T17:58:15.176Z,41.70
2019-05-03T18:00:45.771Z,46.17
2019-05-03T18:03:11.839Z,52.13
2019-05-03T18:05:39.893Z,47.97
2019-05-03T18:08:19.775Z,59.83
2019-05-03T18:10:50.671Z,48.27
2019-05-03T18:13:16.724Z,53.43
2019-05-03T18:15:44.633Z,46.70
2019-05-03T18:18:10.919Z,43.30
2019-05-03T18:20:36.971Z,54.23
2019-05-03T18:23:04.984Z,48.30
2019-05-03T18:25:31.104Z,39.73
2019-05-03T18:27:57.177Z,44.93
2019-05-03T18:30:23.331Z,44.00
2019-05-03T18:32:49.383Z,39.63
2019-05-03T18:35:15.503Z,43.10
2019-05-03T18:37:45.266Z,68.03
2019-05-03T18:40:11.755Z,66.77
2019-05-03T18:42:39.734Z,44.70
2019-05-03T18:45:11.075Z,45.13
2019-05-03T18:47:37.119Z,39.58
2019-05-03T18:50:04.564Z,43.87
2019-05-03T18:52:30.612Z,49.27
2019-05-03T18:54:56.733Z,40.07
2019-05-03T18:57:22.778Z,42.67
2019-05-03T18:59:48.859Z,42.30
2019-05-03T19:02:15.039Z,39.87
2019-05-03T19:04:45.045Z,44.23
2019-05-03T19:07:25.417Z,48.60
2019-05-03T19:09:55.090Z,42.43
2019-05-03T19:12:28.825Z,47.67
2019-05-03T19:14:55.346Z,47.93
2019-05-03T19:17:35.570Z,50.93
2019-05-03T19:20:04.787Z,41.43
2019-05-03T19:22:31.003Z,41.90
2019-05-03T19:24:57.290Z,41.20
2019-05-03T19:27:25.153Z,40.97
2019-05-03T19:29:51.623Z,51.30
2019-05-03T19:32:17.899Z,36.33
2019-05-03T19:34:50.230Z,43.53
2019-05-03T19:37:11.979Z,45.40
2019-05-03T19:39:38.192Z,43.90
2019-05-03T19:42:04.243Z,46.93
2019-05-03T19:44:30.295Z,43.37
2019-05-03T19:46:56.402Z,45.73
2019-05-03T19:49:24.549Z,40.37
2019-05-03T19:51:50.432Z,40.30
2019-05-03T19:54:16.491Z,40.43
2019-05-03T19:56:42.570Z,41.77
2019-05-03T19:59:10.587Z,38.97
2019-05-03T20:01:38.543Z,42.53
2019-05-03T20:04:12.295Z,43.00
2019-05-03T20:06:58.607Z,43.93
2019-05-03T20:09:26.364Z,50.53
2019-05-03T20:11:52.429Z,44.40
2019-05-03T20:14:18.501Z,42.67
2019-05-03T20:16:45.010Z,40.93
2019-05-03T20:19:18.830Z,39.43
2019-05-03T20:21:39.220Z,39.70
2019-05-03T20:24:05.678Z,39.20
2019-05-03T20:26:31.930Z,48.87
2019-05-03T20:28:58.011Z,39.00
2019-05-03T20:31:25.294Z,37.70
2019-05-03T20:33:51.532Z,51.97
2019-05-03T20:36:17.592Z,45.13
2019-05-03T20:38:44.577Z,44.50
2019-05-03T20:41:11.003Z,42.90
2019-05-03T20:43:41.896Z,63.13
2019-05-03T20:46:10.710Z,47.50
2019-05-03T20:48:37.743Z,47.30
2019-05-03T20:51:03.856Z,37.60
2019-05-03T20:53:30.016Z,44.63
2019-05-03T20:55:56.102Z,36.57
2019-05-03T20:58:22.156Z,46.60
2019-05-03T21:00:48.226Z,38.90
2019-05-03T21:03:15.268Z,38.00
2019-05-03T21:05:41.531Z,43.60
2019-05-03T21:08:07.587Z,48.67
2019-05-03T21:10:33.651Z,43.53
2019-05-03T21:12:59.719Z,47.07
2019-05-03T21:15:44.549Z,43.80
2019-05-03T21:18:29.182Z,44.93
2019-05-03T21:21:13.895Z,35.47
2019-05-03T21:23:55.374Z,54.33
2019-05-03T21:26:21.855Z,35.87
2019-05-03T21:28:47.955Z,34.77
2019-05-03T21:31:15.667Z,38.20
2019-05-03T21:33:41.923Z,61.90
2019-05-03T21:36:08.243Z,51.33
2019-05-03T21:38:35.409Z,48.67
2019-05-03T21:41:01.907Z,40.20
2019-05-03T21:43:28.019Z,43.97
2019-05-03T21:45:56.080Z,39.57
2019-05-03T21:48:40.752Z,41.10
2019-05-03T21:51:06.808Z,42.63
2019-05-03T21:53:34.463Z,52.10
2019-05-03T21:56:00.757Z,34.43
2019-05-03T21:58:26.926Z,38.93
2019-05-03T22:00:54.892Z,34.67
2019-05-03T22:03:20.956Z,36.40
2019-05-03T22:05:55.121Z,43.67
2019-05-03T22:08:15.080Z,40.80
2019-05-03T22:10:41.139Z,41.60
2019-05-03T22:13:07.191Z,41.73
2019-05-03T22:15:38.401Z,43.20
2019-05-03T22:18:06.351Z,53.73
2019-05-03T22:20:35.035Z,37.20
2019-05-03T22:23:04.543Z,34.23
2019-05-03T22:25:32.571Z,35.40
2019-05-03T22:27:58.643Z,44.37
2019-05-03T22:30:26.914Z,38.00
2019-05-03T22:32:54.780Z,40.00
2019-05-03T22:35:21.066Z,41.17
2019-05-03T22:37:47.135Z,41.23
2019-05-03T22:40:14.627Z,49.90
2019-05-03T22:42:40.944Z,40.13
2019-05-03T22:45:07.509Z,38.37
2019-05-03T22:47:35.628Z,48.93
2019-05-03T22:50:01.792Z,37.20
2019-05-03T22:52:27.859Z,38.07
2019-05-03T22:54:55.477Z,38.57
2019-05-03T22:57:21.788Z,36.73
2019-05-03T22:59:47.838Z,36.00
2019-05-03T23:02:16.876Z,37.63
2019-05-03T23:04:41.880Z,53.10
2019-05-03T23:07:08.076Z,43.27
2019-05-03T23:09:35.270Z,43.43
2019-05-03T23:12:01.492Z,38.97
2019-05-03T23:14:27.923Z,52.33
2019-05-03T23:16:54.098Z,44.50
2019-05-03T23:19:20.143Z,36.50
2019-05-03T23:21:48.102Z,39.73
2019-05-03T23:24:15.416Z,35.53
2019-05-03T23:26:41.615Z,38.43
2019-05-03T23:29:07.681Z,36.03
2019-05-03T23:31:34.371Z,36.63
2019-05-03T23:34:00.580Z,45.03
2019-05-03T23:36:33.318Z,48.53
2019-05-03T23:38:54.756Z,41.30
2019-05-03T23:41:21.082Z,41.50
2019-05-03T23:43:47.143Z,56.57
2019-05-03T23:46:14.908Z,42.07
2019-05-03T23:48:41.010Z,37.33
2019-05-03T23:51:08.983Z,35.40
2019-05-03T23:53:35.036Z,48.73
2019-05-03T23:56:04.497Z,35.47
2019-05-03T23:58:30.652Z,40.37
